sensor_id;sensor_type;location;lat;lon;timestamp;pressure;altitude;pressure_sealevel;temperature
73673;BMP280;61972;19.480;-99.240;2024-02-23T00:01:01;77585.31;;;23.66
73673;BMP280;61972;19.480;-99.240;2024-02-23T00:03:30;77572.84;;;23.66
73673;BMP280;61972;19.480;-99.240;2024-02-23T00:05:59;77575.06;;;23.68
73673;BMP280;61972;19.480;-99.240;2024-02-23T00:08:25;77590.16;;;23.68
73673;BMP280;61972;19.480;-99.240;2024-02-23T00:10:51;77591.28;;;23.69
73673;BMP280;61972;19.480;-99.240;2024-02-23T00:13:17;77595.00;;;23.70
73673;BMP280;61972;19.480;-99.240;2024-02-23T00:15:43;77603.38;;;23.70
73673;BMP280;61972;19.480;-99.240;2024-02-23T00:18:09;77609.13;;;23.71
73673;BMP280;61972;19.480;-99.240;2024-02-23T00:20:37;77605.03;;;23.72
73673;BMP280;61972;19.480;-99.240;2024-02-23T00:23:03;77606.16;;;23.73
73673;BMP280;61972;19.480;-99.240;2024-02-23T00:25:29;77614.56;;;23.73
73673;BMP280;61972;19.480;-99.240;2024-02-23T00:27:55;77615.09;;;23.74
73673;BMP280;61972;19.480;-99.240;2024-02-23T00:30:21;77613.03;;;23.74
73673;BMP280;61972;19.480;-99.240;2024-02-23T00:32:48;77616.19;;;23.75
73673;BMP280;61972;19.480;-99.240;2024-02-23T00:35:14;77614.72;;;23.76
73673;BMP280;61972;19.480;-99.240;2024-02-23T00:37:40;77615.25;;;23.76
73673;BMP280;61972;19.480;-99.240;2024-02-23T00:40:07;77617.88;;;23.76
73673;BMP280;61972;19.480;-99.240;2024-02-23T00:42:34;77625.69;;;23.76
73673;BMP280;61972;19.480;-99.240;2024-02-23T00:45:00;77621.06;;;23.77
73673;BMP280;61972;19.480;-99.240;2024-02-23T00:47:27;77627.38;;;23.78
73673;BMP280;61972;19.480;-99.240;2024-02-23T00:49:53;77624.75;;;23.78
73673;BMP280;61972;19.480;-99.240;2024-02-23T00:52:19;77629.97;;;23.78
73673;BMP280;61972;19.480;-99.240;2024-02-23T00:54:45;77632.59;;;23.78
73673;BMP280;61972;19.480;-99.240;2024-02-23T00:57:11;77629.44;;;23.77
73673;BMP280;61972;19.480;-99.240;2024-02-23T00:59:38;77637.81;;;23.78
73673;BMP280;61972;19.480;-99.240;2024-02-23T01:02:04;77643.56;;;23.78
73673;BMP280;61972;19.480;-99.240;2024-02-23T01:04:32;77644.16;;;23.79
73673;BMP280;61972;19.480;-99.240;2024-02-23T01:06:58;77648.25;;;23.78
73673;BMP280;61972;19.480;-99.240;2024-02-23T01:09:25;77647.31;;;23.79
73673;BMP280;61972;19.480;-99.240;2024-02-23T01:15:25;77653.47;;;23.78
73673;BMP280;61972;19.480;-99.240;2024-02-23T01:17:51;77653.47;;;23.78
73673;BMP280;61972;19.480;-99.240;2024-02-23T01:20:17;77654.59;;;23.79
73673;BMP280;61972;19.480;-99.240;2024-02-23T01:22:46;77657.19;;;23.79
73673;BMP280;61972;19.480;-99.240;2024-02-23T01:25:12;77659.22;;;23.78
73673;BMP280;61972;19.480;-99.240;2024-02-23T01:27:38;77661.84;;;23.78
73673;BMP280;61972;19.480;-99.240;2024-02-23T01:30:06;77670.22;;;23.79
73673;BMP280;61972;19.480;-99.240;2024-02-23T01:32:32;77667.63;;;23.79
73673;BMP280;61972;19.480;-99.240;2024-02-23T01:34:58;77668.56;;;23.77
73673;BMP280;61972;19.480;-99.240;2024-02-23T01:37:24;77670.78;;;23.79
73673;BMP280;61972;19.480;-99.240;2024-02-23T01:39:50;77674.34;;;23.78
73673;BMP280;61972;19.480;-99.240;2024-02-23T01:42:16;77676.38;;;23.77
73673;BMP280;61972;19.480;-99.240;2024-02-23T01:44:43;77675.44;;;23.79
73673;BMP280;61972;19.480;-99.240;2024-02-23T01:47:09;77684.75;;;23.78
73673;BMP280;61972;19.480;-99.240;2024-02-23T01:49:35;77684.22;;;23.77
73673;BMP280;61972;19.480;-99.240;2024-02-23T01:52:02;77694.66;;;23.77
73673;BMP280;61972;19.480;-99.240;2024-02-23T01:54:29;77697.81;;;23.78
73673;BMP280;61972;19.480;-99.240;2024-02-23T01:56:57;77700.41;;;23.78
73673;BMP280;61972;19.480;-99.240;2024-02-23T01:59:25;77703.03;;;23.78
73673;BMP280;61972;19.480;-99.240;2024-02-23T02:01:52;77708.78;;;23.78
73673;BMP280;61972;19.480;-99.240;2024-02-23T02:04:18;77710.84;;;23.78
73673;BMP280;61972;19.480;-99.240;2024-02-23T02:06:46;77711.97;;;23.79
73673;BMP280;61972;19.480;-99.240;2024-02-23T02:09:12;77709.91;;;23.79
73673;BMP280;61972;19.480;-99.240;2024-02-23T02:11:47;77707.88;;;23.80
73673;BMP280;61972;19.480;-99.240;2024-02-23T02:14:14;77715.72;;;23.80
73673;BMP280;61972;19.480;-99.240;2024-02-23T02:16:40;77713.09;;;23.80
73673;BMP280;61972;19.480;-99.240;2024-02-23T02:19:07;77720.94;;;23.80
73673;BMP280;61972;19.480;-99.240;2024-02-23T02:21:33;77722.06;;;23.81
73673;BMP280;61972;19.480;-99.240;2024-02-23T02:23:59;77726.16;;;23.80
73673;BMP280;61972;19.480;-99.240;2024-02-23T02:26:26;77732.84;;;23.79
73673;BMP280;61972;19.480;-99.240;2024-02-23T02:28:52;77740.09;;;23.78
73673;BMP280;61972;19.480;-99.240;2024-02-23T02:31:18;77740.09;;;23.78
73673;BMP280;61972;19.480;-99.240;2024-02-23T02:33:44;77742.16;;;23.78
73673;BMP280;61972;19.480;-99.240;2024-02-23T02:36:10;77745.88;;;23.79
73673;BMP280;61972;19.480;-99.240;2024-02-23T02:38:37;77747.94;;;23.78
73673;BMP280;61972;19.480;-99.240;2024-02-23T02:41:03;77750.53;;;23.78
73673;BMP280;61972;19.480;-99.240;2024-02-23T02:43:30;77747.38;;;23.78
73673;BMP280;61972;19.480;-99.240;2024-02-23T02:45:57;77757.81;;;23.78
73673;BMP280;61972;19.480;-99.240;2024-02-23T02:48:24;77757.81;;;23.78
73673;BMP280;61972;19.480;-99.240;2024-02-23T02:50:51;77765.28;;;23.80
73673;BMP280;61972;19.480;-99.240;2024-02-23T02:53:17;77766.75;;;23.79
73673;BMP280;61972;19.480;-99.240;2024-02-23T02:55:44;77769.38;;;23.79
73673;BMP280;61972;19.480;-99.240;2024-02-23T02:58:11;77769.38;;;23.79
73673;BMP280;61972;19.480;-99.240;2024-02-23T03:00:38;77775.72;;;23.80
73673;BMP280;61972;19.480;-99.240;2024-02-23T03:03:05;77775.13;;;23.79
73673;BMP280;61972;19.480;-99.240;2024-02-23T03:05:34;77778.69;;;23.78
73673;BMP280;61972;19.480;-99.240;2024-02-23T03:08:00;77780.34;;;23.79
73673;BMP280;61972;19.480;-99.240;2024-02-23T03:10:26;77785.03;;;23.79
73673;BMP280;61972;19.480;-99.240;2024-02-23T03:12:52;77783.91;;;23.78
73673;BMP280;61972;19.480;-99.240;2024-02-23T03:15:18;77784.44;;;23.78
73673;BMP280;61972;19.480;-99.240;2024-02-23T03:17:45;77789.13;;;23.78
73673;BMP280;61972;19.480;-99.240;2024-02-23T03:20:11;77789.13;;;23.78
73673;BMP280;61972;19.480;-99.240;2024-02-23T03:22:37;77797.50;;;23.78
73673;BMP280;61972;19.480;-99.240;2024-02-23T03:25:04;77801.59;;;23.77
73673;BMP280;61972;19.480;-99.240;2024-02-23T03:27:37;77808.50;;;23.79
73673;BMP280;61972;19.480;-99.240;2024-02-23T03:30:04;77802.16;;;23.78
73673;BMP280;61972;19.480;-99.240;2024-02-23T03:32:31;77821.53;;;23.79
73673;BMP280;61972;19.480;-99.240;2024-02-23T03:35:03;77823.03;;;23.78
73673;BMP280;61972;19.480;-99.240;2024-02-23T03:37:29;77818.38;;;23.78
73673;BMP280;61972;19.480;-99.240;2024-02-23T03:39:55;77815.75;;;23.78
73673;BMP280;61972;19.480;-99.240;2024-02-23T03:42:21;77826.19;;;23.78
73673;BMP280;61972;19.480;-99.240;2024-02-23T03:44:48;77826.19;;;23.78
73673;BMP280;61972;19.480;-99.240;2024-02-23T03:47:14;77821.53;;;23.79
73673;BMP280;61972;19.480;-99.240;2024-02-23T03:49:40;77818.94;;;23.79
73673;BMP280;61972;19.480;-99.240;2024-02-23T03:52:09;77821.53;;;23.79
73673;BMP280;61972;19.480;-99.240;2024-02-23T03:54:35;77828.25;;;23.78
73673;BMP280;61972;19.480;-99.240;2024-02-23T03:57:01;77825.63;;;23.78
73673;BMP280;61972;19.480;-99.240;2024-02-23T03:59:28;77829.19;;;23.76
73673;BMP280;61972;19.480;-99.240;2024-02-23T04:01:54;77820.78;;;23.76
73673;BMP280;61972;19.480;-99.240;2024-02-23T04:04:20;77824.88;;;23.75
73673;BMP280;61972;19.480;-99.240;2024-02-23T04:06:46;77824.88;;;23.75
73673;BMP280;61972;19.480;-99.240;2024-02-23T04:09:13;77822.84;;;23.75
73673;BMP280;61972;19.480;-99.240;2024-02-23T04:11:39;77822.66;;;23.73
73673;BMP280;61972;19.480;-99.240;2024-02-23T04:14:05;77820.06;;;23.73
73673;BMP280;61972;19.480;-99.240;2024-02-23T04:16:31;77824.16;;;23.72
73673;BMP280;61972;19.480;-99.240;2024-02-23T04:18:57;77828.81;;;23.71
73673;BMP280;61972;19.480;-99.240;2024-02-23T04:21:25;77832.34;;;23.70
73673;BMP280;61972;19.480;-99.240;2024-02-23T04:23:51;77831.78;;;23.69
73673;BMP280;61972;19.480;-99.240;2024-02-23T04:26:17;77830.13;;;23.68
73673;BMP280;61972;19.480;-99.240;2024-02-23T04:28:43;77825.44;;;23.68
73673;BMP280;61972;19.480;-99.240;2024-02-23T04:31:09;77826.38;;;23.67
73673;BMP280;61972;19.480;-99.240;2024-02-23T04:33:36;77829.53;;;23.67
73673;BMP280;61972;19.480;-99.240;2024-02-23T04:36:03;77820.63;;;23.66
73673;BMP280;61972;19.480;-99.240;2024-02-23T04:38:30;77826.75;;;23.64
73673;BMP280;61972;19.480;-99.240;2024-02-23T04:40:57;77828.78;;;23.64
73673;BMP280;61972;19.480;-99.240;2024-02-23T04:43:24;77833.47;;;23.63
73673;BMP280;61972;19.480;-99.240;2024-02-23T04:45:51;77834.97;;;23.62
73673;BMP280;61972;19.480;-99.240;2024-02-23T04:48:17;77839.06;;;23.61
73673;BMP280;61972;19.480;-99.240;2024-02-23T04:50:43;77830.09;;;23.60
73673;BMP280;61972;19.480;-99.240;2024-02-23T04:53:09;77832.72;;;23.60
73673;BMP280;61972;19.480;-99.240;2024-02-23T04:55:36;77831.03;;;23.59
73673;BMP280;61972;19.480;-99.240;2024-02-23T04:58:02;77835.16;;;23.58
73673;BMP280;61972;19.480;-99.240;2024-02-23T05:00:28;77833.09;;;23.58
73673;BMP280;61972;19.480;-99.240;2024-02-23T05:03:01;77833.44;;;23.56
73673;BMP280;61972;19.480;-99.240;2024-02-23T05:05:32;77832.34;;;23.55
73673;BMP280;61972;19.480;-99.240;2024-02-23T05:08:03;77832.34;;;23.55
73673;BMP280;61972;19.480;-99.240;2024-02-23T05:10:38;77831.22;;;23.54
73673;BMP280;61972;19.480;-99.240;2024-02-23T05:13:05;77835.31;;;23.53
73673;BMP280;61972;19.480;-99.240;2024-02-23T05:15:31;77834.19;;;23.52
73673;BMP280;61972;19.480;-99.240;2024-02-23T05:17:57;77828.97;;;23.52
73673;BMP280;61972;19.480;-99.240;2024-02-23T05:20:23;77835.69;;;23.51
73673;BMP280;61972;19.480;-99.240;2024-02-23T05:22:52;77834.56;;;23.50
73673;BMP280;61972;19.480;-99.240;2024-02-23T05:25:18;77831.41;;;23.50
73673;BMP280;61972;19.480;-99.240;2024-02-23T05:27:47;77823.94;;;23.48
73673;BMP280;61972;19.480;-99.240;2024-02-23T05:30:16;77817.63;;;23.47
73673;BMP280;61972;19.480;-99.240;2024-02-23T05:32:42;77815.19;;;23.49
73673;BMP280;61972;19.480;-99.240;2024-02-23T05:35:09;77813.88;;;23.53
73673;BMP280;61972;19.480;-99.240;2024-02-23T05:37:41;77813.72;;;23.57
73673;BMP280;61972;19.480;-99.240;2024-02-23T05:40:08;77814.09;;;23.62
73673;BMP280;61972;19.480;-99.240;2024-02-23T05:42:39;77812.41;;;23.68
73673;BMP280;61972;19.480;-99.240;2024-02-23T05:45:07;77809.81;;;23.75
73673;BMP280;61972;19.480;-99.240;2024-02-23T05:47:39;77806.25;;;23.84
73673;BMP280;61972;19.480;-99.240;2024-02-23T05:50:08;77811.66;;;23.94
73673;BMP280;61972;19.480;-99.240;2024-02-23T05:52:37;77806.63;;;24.04
73673;BMP280;61972;19.480;-99.240;2024-02-23T05:55:05;77807.94;;;24.14
73673;BMP280;61972;19.480;-99.240;2024-02-23T05:57:34;77807.31;;;24.28
73673;BMP280;61972;19.480;-99.240;2024-02-23T06:00:00;77807.63;;;24.48
73673;BMP280;61972;19.480;-99.240;2024-02-23T06:02:26;77805.34;;;24.67
73673;BMP280;61972;19.480;-99.240;2024-02-23T06:04:53;77796.50;;;24.90
73673;BMP280;61972;19.480;-99.240;2024-02-23T06:07:19;77800.13;;;25.13
73673;BMP280;61972;19.480;-99.240;2024-02-23T06:09:49;77800.72;;;25.38
73673;BMP280;61972;19.480;-99.240;2024-02-23T06:12:15;77801.91;;;25.63
73673;BMP280;61972;19.480;-99.240;2024-02-23T06:14:42;77790.88;;;25.87
73673;BMP280;61972;19.480;-99.240;2024-02-23T06:17:08;77786.97;;;26.07
73673;BMP280;61972;19.480;-99.240;2024-02-23T06:19:34;77786.63;;;26.26
73673;BMP280;61972;19.480;-99.240;2024-02-23T06:22:00;77781.00;;;26.45
73673;BMP280;61972;19.480;-99.240;2024-02-23T06:24:27;77780.66;;;26.64
73673;BMP280;61972;19.480;-99.240;2024-02-23T06:26:53;77777.66;;;26.83
73673;BMP280;61972;19.480;-99.240;2024-02-23T06:29:19;77781.91;;;27.02
73673;BMP280;61972;19.480;-99.240;2024-02-23T06:31:45;77784.69;;;27.21
73673;BMP280;61972;19.480;-99.240;2024-02-23T06:34:15;77779.97;;;27.39
73673;BMP280;61972;19.480;-99.240;2024-02-23T06:36:42;77782.97;;;27.54
73673;BMP280;61972;19.480;-99.240;2024-02-23T06:39:08;77787.69;;;27.63
73673;BMP280;61972;19.480;-99.240;2024-02-23T06:41:34;77779.03;;;27.67
73673;BMP280;61972;19.480;-99.240;2024-02-23T06:44:00;77774.91;;;27.68
73673;BMP280;61972;19.480;-99.240;2024-02-23T06:46:27;77782.19;;;27.67
73673;BMP280;61972;19.480;-99.240;2024-02-23T06:48:53;77785.22;;;27.65
73673;BMP280;61972;19.480;-99.240;2024-02-23T06:51:19;77777.06;;;27.60
73673;BMP280;61972;19.480;-99.240;2024-02-23T06:53:46;77780.47;;;27.56
73673;BMP280;61972;19.480;-99.240;2024-02-23T06:56:12;77777.94;;;27.49
73673;BMP280;61972;19.480;-99.240;2024-02-23T06:58:39;77777.09;;;27.43
73673;BMP280;61972;19.480;-99.240;2024-02-23T07:01:05;77772.09;;;27.39
73673;BMP280;61972;19.480;-99.240;2024-02-23T07:03:37;77774.25;;;27.31
73673;BMP280;61972;19.480;-99.240;2024-02-23T07:06:03;77773.38;;;27.25
73673;BMP280;61972;19.480;-99.240;2024-02-23T07:08:29;77764.09;;;27.19
73673;BMP280;61972;19.480;-99.240;2024-02-23T07:10:56;77760.59;;;27.13
73673;BMP280;61972;19.480;-99.240;2024-02-23T07:13:22;77763.47;;;27.09
73673;BMP280;61972;19.480;-99.240;2024-02-23T07:15:49;77765.38;;;27.06
73673;BMP280;61972;19.480;-99.240;2024-02-23T07:18:15;77762.06;;;27.03
73673;BMP280;61972;19.480;-99.240;2024-02-23T07:20:41;77764.50;;;27.00
73673;BMP280;61972;19.480;-99.240;2024-02-23T07:23:07;77761.75;;;26.98
73673;BMP280;61972;19.480;-99.240;2024-02-23T07:25:34;77757.69;;;26.91
73673;BMP280;61972;19.480;-99.240;2024-02-23T07:28:01;77762.31;;;26.81
73673;BMP280;61972;19.480;-99.240;2024-02-23T07:30:27;77757.53;;;26.72
73673;BMP280;61972;19.480;-99.240;2024-02-23T07:32:53;77756.88;;;26.62
73673;BMP280;61972;19.480;-99.240;2024-02-23T07:35:19;77754.03;;;26.49
73673;BMP280;61972;19.480;-99.240;2024-02-23T07:37:48;77751.50;;;26.42
73673;BMP280;61972;19.480;-99.240;2024-02-23T07:40:15;77751.31;;;26.39
73673;BMP280;61972;19.480;-99.240;2024-02-23T07:42:41;77758.84;;;26.34
73673;BMP280;61972;19.480;-99.240;2024-02-23T07:45:07;77758.91;;;26.27
73673;BMP280;61972;19.480;-99.240;2024-02-23T07:47:35;77756.53;;;26.23
73673;BMP280;61972;19.480;-99.240;2024-02-23T07:50:01;77756.63;;;26.15
73673;BMP280;61972;19.480;-99.240;2024-02-23T07:52:27;77752.56;;;26.09
73673;BMP280;61972;19.480;-99.240;2024-02-23T07:54:53;77748.47;;;26.03
73673;BMP280;61972;19.480;-99.240;2024-02-23T07:57:19;77746.66;;;25.99
73673;BMP280;61972;19.480;-99.240;2024-02-23T07:59:46;77745.38;;;25.95
73673;BMP280;61972;19.480;-99.240;2024-02-23T08:02:15;77744.13;;;25.92
73673;BMP280;61972;19.480;-99.240;2024-02-23T08:04:41;77751.25;;;25.89
73673;BMP280;61972;19.480;-99.240;2024-02-23T08:07:08;77744.16;;;25.84
73673;BMP280;61972;19.480;-99.240;2024-02-23T08:09:34;77756.13;;;25.83
73673;BMP280;61972;19.480;-99.240;2024-02-23T08:12:00;77748.66;;;25.81
73673;BMP280;61972;19.480;-99.240;2024-02-23T08:14:26;77752.78;;;25.80
73673;BMP280;61972;19.480;-99.240;2024-02-23T08:16:53;77751.66;;;25.79
73673;BMP280;61972;19.480;-99.240;2024-02-23T08:19:19;77746.84;;;25.77
73673;BMP280;61972;19.480;-99.240;2024-02-23T08:21:45;77745.72;;;25.76
73673;BMP280;61972;19.480;-99.240;2024-02-23T08:24:12;77747.22;;;25.75
73673;BMP280;61972;19.480;-99.240;2024-02-23T08:26:38;77746.66;;;25.75
73673;BMP280;61972;19.480;-99.240;2024-02-23T08:29:09;77745.53;;;25.74
73673;BMP280;61972;19.480;-99.240;2024-02-23T08:31:35;77746.13;;;25.74
73673;BMP280;61972;19.480;-99.240;2024-02-23T08:34:01;77737.53;;;25.71
73673;BMP280;61972;19.480;-99.240;2024-02-23T08:36:27;77740.53;;;25.69
73673;BMP280;61972;19.480;-99.240;2024-02-23T08:38:54;77733.66;;;25.68
73673;BMP280;61972;19.480;-99.240;2024-02-23T08:41:20;77731.97;;;25.66
73673;BMP280;61972;19.480;-99.240;2024-02-23T08:43:46;77726.16;;;25.65
73673;BMP280;61972;19.480;-99.240;2024-02-23T08:46:13;77733.88;;;25.63
73673;BMP280;61972;19.480;-99.240;2024-02-23T08:48:39;77732.19;;;25.61
73673;BMP280;61972;19.480;-99.240;2024-02-23T08:51:05;77727.91;;;25.60
73673;BMP280;61972;19.480;-99.240;2024-02-23T08:53:31;77727.75;;;25.57
73673;BMP280;61972;19.480;-99.240;2024-02-23T08:55:57;77724.94;;;25.55
73673;BMP280;61972;19.480;-99.240;2024-02-23T08:58:24;77730.59;;;25.53
73673;BMP280;61972;19.480;-99.240;2024-02-23T09:00:50;77725.19;;;25.50
73673;BMP280;61972;19.480;-99.240;2024-02-23T09:03:16;77729.84;;;25.50
73673;BMP280;61972;19.480;-99.240;2024-02-23T09:05:42;77732.31;;;25.47
73673;BMP280;61972;19.480;-99.240;2024-02-23T09:08:08;77728.41;;;25.43
73673;BMP280;61972;19.480;-99.240;2024-02-23T09:10:34;77723.53;;;25.41
73673;BMP280;61972;19.480;-99.240;2024-02-23T09:13:00;77723.97;;;25.39
73673;BMP280;61972;19.480;-99.240;2024-02-23T09:15:29;77721.72;;;25.37
73673;BMP280;61972;19.480;-99.240;2024-02-23T09:17:55;77717.03;;;25.38
73673;BMP280;61972;19.480;-99.240;2024-02-23T09:20:21;77723.22;;;25.36
73673;BMP280;61972;19.480;-99.240;2024-02-23T09:22:48;77714.81;;;25.36
73673;BMP280;61972;19.480;-99.240;2024-02-23T09:25:18;77716.47;;;25.37
73673;BMP280;61972;19.480;-99.240;2024-02-23T09:27:44;77724.34;;;25.37
73673;BMP280;61972;19.480;-99.240;2024-02-23T09:30:14;77716.47;;;25.37
73673;BMP280;61972;19.480;-99.240;2024-02-23T09:32:40;77719.09;;;25.37
73673;BMP280;61972;19.480;-99.240;2024-02-23T09:35:07;77721.16;;;25.37
73673;BMP280;61972;19.480;-99.240;2024-02-23T09:37:33;77718.94;;;25.35
73673;BMP280;61972;19.480;-99.240;2024-02-23T09:39:59;77716.16;;;25.32
73673;BMP280;61972;19.480;-99.240;2024-02-23T09:42:25;77720.25;;;25.31
73673;BMP280;61972;19.480;-99.240;2024-02-23T09:44:59;77723.28;;;25.29
73673;BMP280;61972;19.480;-99.240;2024-02-23T09:47:29;77712.25;;;25.28
73673;BMP280;61972;19.480;-99.240;2024-02-23T09:49:55;77722.72;;;25.28
73673;BMP280;61972;19.480;-99.240;2024-02-23T09:52:22;77715.44;;;25.29
73673;BMP280;61972;19.480;-99.240;2024-02-23T09:54:49;77716.00;;;25.30
73673;BMP280;61972;19.480;-99.240;2024-02-23T09:57:16;77718.03;;;25.29
73673;BMP280;61972;19.480;-99.240;2024-02-23T09:59:43;77723.28;;;25.29
73673;BMP280;61972;19.480;-99.240;2024-02-23T10:02:14;77723.28;;;25.29
73673;BMP280;61972;19.480;-99.240;2024-02-23T10:04:42;77721.59;;;25.27
73673;BMP280;61972;19.480;-99.240;2024-02-23T10:07:15;77719.94;;;25.26
73673;BMP280;61972;19.480;-99.240;2024-02-23T10:09:47;77719.38;;;25.25
73673;BMP280;61972;19.480;-99.240;2024-02-23T10:12:13;77714.72;;;25.26
73673;BMP280;61972;19.480;-99.240;2024-02-23T10:14:41;77717.34;;;25.26
73673;BMP280;61972;19.480;-99.240;2024-02-23T10:17:08;77706.31;;;25.25
73673;BMP280;61972;19.480;-99.240;2024-02-23T10:19:34;77715.78;;;25.27
73673;BMP280;61972;19.480;-99.240;2024-02-23T10:22:00;77713.38;;;25.30
73673;BMP280;61972;19.480;-99.240;2024-02-23T10:24:27;77708.16;;;25.30
73673;BMP280;61972;19.480;-99.240;2024-02-23T10:26:53;77715.44;;;25.29
73673;BMP280;61972;19.480;-99.240;2024-02-23T10:29:20;77708.53;;;25.27
73673;BMP280;61972;19.480;-99.240;2024-02-23T10:31:47;77705.34;;;25.27
73673;BMP280;61972;19.480;-99.240;2024-02-23T10:34:21;77705.34;;;25.27
73673;BMP280;61972;19.480;-99.240;2024-02-23T10:36:47;77710.56;;;25.27
73673;BMP280;61972;19.480;-99.240;2024-02-23T10:39:17;77709.47;;;25.26
73673;BMP280;61972;19.480;-99.240;2024-02-23T10:41:56;77713.19;;;25.27
73673;BMP280;61972;19.480;-99.240;2024-02-23T10:44:24;77708.38;;;25.25
73673;BMP280;61972;19.480;-99.240;2024-02-23T10:46:53;77708.19;;;25.22
73673;BMP280;61972;19.480;-99.240;2024-02-23T10:49:23;77714.34;;;25.21
73673;BMP280;61972;19.480;-99.240;2024-02-23T10:51:53;77712.69;;;25.19
73673;BMP280;61972;19.480;-99.240;2024-02-23T10:54:20;77705.78;;;25.18
73673;BMP280;61972;19.480;-99.240;2024-02-23T10:56:48;77715.13;;;25.17
73673;BMP280;61972;19.480;-99.240;2024-02-23T10:59:15;77712.91;;;25.15
73673;BMP280;61972;19.480;-99.240;2024-02-23T11:01:48;77711.22;;;25.13
73673;BMP280;61972;19.480;-99.240;2024-02-23T11:04:19;77709.00;;;25.11
73673;BMP280;61972;19.480;-99.240;2024-02-23T11:06:59;77714.22;;;25.11
73673;BMP280;61972;19.480;-99.240;2024-02-23T11:09:31;77715.34;;;25.12
73673;BMP280;61972;19.480;-99.240;2024-02-23T11:11:58;77718.91;;;25.10
73673;BMP280;61972;19.480;-99.240;2024-02-23T11:14:32;77717.22;;;25.09
73673;BMP280;61972;19.480;-99.240;2024-02-23T11:16:58;77719.69;;;25.06
73673;BMP280;61972;19.480;-99.240;2024-02-23T11:19:36;77711.09;;;25.03
73673;BMP280;61972;19.480;-99.240;2024-02-23T11:22:05;77715.22;;;25.02
73673;BMP280;61972;19.480;-99.240;2024-02-23T11:24:32;77715.22;;;25.02
73673;BMP280;61972;19.480;-99.240;2024-02-23T11:26:58;77716.34;;;25.03
73673;BMP280;61972;19.480;-99.240;2024-02-23T11:29:27;77707.38;;;25.02
73673;BMP280;61972;19.480;-99.240;2024-02-23T11:31:58;77711.50;;;25.01
73673;BMP280;61972;19.480;-99.240;2024-02-23T11:34:32;77715.44;;;24.98
73673;BMP280;61972;19.480;-99.240;2024-02-23T11:37:09;77723.66;;;24.96
73673;BMP280;61972;19.480;-99.240;2024-02-23T11:39:37;77723.84;;;24.91
73673;BMP280;61972;19.480;-99.240;2024-02-23T11:42:05;77723.53;;;24.86
73673;BMP280;61972;19.480;-99.240;2024-02-23T11:44:31;77727.84;;;24.80
73673;BMP280;61972;19.480;-99.240;2024-02-23T11:47:01;77728.06;;;24.76
73673;BMP280;61972;19.480;-99.240;2024-02-23T11:49:29;77730.88;;;24.71
73673;BMP280;61972;19.480;-99.240;2024-02-23T11:51:55;77731.66;;;24.67
73673;BMP280;61972;19.480;-99.240;2024-02-23T11:54:22;77735.56;;;24.63
73673;BMP280;61972;19.480;-99.240;2024-02-23T11:56:49;77733.72;;;24.59
73673;BMP280;61972;19.480;-99.240;2024-02-23T11:59:16;77737.66;;;24.55
73673;BMP280;61972;19.480;-99.240;2024-02-23T12:01:43;77734.31;;;24.52
73673;BMP280;61972;19.480;-99.240;2024-02-23T12:04:09;77737.69;;;24.48
73673;BMP280;61972;19.480;-99.240;2024-02-23T12:06:35;77737.91;;;24.44
73673;BMP280;61972;19.480;-99.240;2024-02-23T12:09:02;77735.50;;;24.39
73673;BMP280;61972;19.480;-99.240;2024-02-23T12:11:30;77747.25;;;24.35
73673;BMP280;61972;19.480;-99.240;2024-02-23T12:13:57;77745.97;;;24.32
73673;BMP280;61972;19.480;-99.240;2024-02-23T12:16:23;77744.66;;;24.28
73673;BMP280;61972;19.480;-99.240;2024-02-23T12:18:56;77746.53;;;24.25
73673;BMP280;61972;19.480;-99.240;2024-02-23T12:21:23;77752.13;;;24.23
73673;BMP280;61972;19.480;-99.240;2024-02-23T12:23:50;77749.72;;;24.18
73673;BMP280;61972;19.480;-99.240;2024-02-23T12:26:17;77756.81;;;24.15
73673;BMP280;61972;19.480;-99.240;2024-02-23T12:28:44;77754.97;;;24.11
73673;BMP280;61972;19.480;-99.240;2024-02-23T12:31:11;77756.81;;;24.08
73673;BMP280;61972;19.480;-99.240;2024-02-23T12:33:38;77756.66;;;24.06
73673;BMP280;61972;19.480;-99.240;2024-02-23T12:36:13;77759.66;;;24.04
73673;BMP280;61972;19.480;-99.240;2024-02-23T12:38:39;77762.06;;;24.01
73673;BMP280;61972;19.480;-99.240;2024-02-23T12:41:05;77761.34;;;23.98
73673;BMP280;61972;19.480;-99.240;2024-02-23T12:43:32;77768.59;;;23.97
73673;BMP280;61972;19.480;-99.240;2024-02-23T12:45:58;77765.25;;;23.94
73673;BMP280;61972;19.480;-99.240;2024-02-23T12:48:31;77766.16;;;23.93
73673;BMP280;61972;19.480;-99.240;2024-02-23T12:50:57;77761.91;;;23.91
73673;BMP280;61972;19.480;-99.240;2024-02-23T12:53:50;77763.78;;;23.88
73673;BMP280;61972;19.480;-99.240;2024-02-23T12:56:16;77770.47;;;23.87
73673;BMP280;61972;19.480;-99.240;2024-02-23T12:58:44;77768.25;;;23.85
73673;BMP280;61972;19.480;-99.240;2024-02-23T13:01:10;77768.59;;;23.83
73673;BMP280;61972;19.480;-99.240;2024-02-23T13:03:38;77778.31;;;23.80
73673;BMP280;61972;19.480;-99.240;2024-02-23T13:06:08;77768.25;;;23.78
73673;BMP280;61972;19.480;-99.240;2024-02-23T13:08:34;77770.69;;;23.75
73673;BMP280;61972;19.480;-99.240;2024-02-23T13:11:00;77774.22;;;23.74
73673;BMP280;61972;19.480;-99.240;2024-02-23T13:13:27;77774.03;;;23.71
73673;BMP280;61972;19.480;-99.240;2024-02-23T13:15:56;77785.41;;;23.70
73673;BMP280;61972;19.480;-99.240;2024-02-23T13:18:23;77783.72;;;23.68
73673;BMP280;61972;19.480;-99.240;2024-02-23T13:20:50;77775.72;;;23.66
73673;BMP280;61972;19.480;-99.240;2024-02-23T13:23:17;77779.25;;;23.64
73673;BMP280;61972;19.480;-99.240;2024-02-23T13:25:44;77780.19;;;23.62
73673;BMP280;61972;19.480;-99.240;2024-02-23T13:28:10;77782.59;;;23.60
73673;BMP280;61972;19.480;-99.240;2024-02-23T13:30:39;77788.19;;;23.58
73673;BMP280;61972;19.480;-99.240;2024-02-23T13:33:06;77792.28;;;23.57
73673;BMP280;61972;19.480;-99.240;2024-02-23T13:35:36;77795.28;;;23.55
73673;BMP280;61972;19.480;-99.240;2024-02-23T13:38:02;77796.94;;;23.56
73673;BMP280;61972;19.480;-99.240;2024-02-23T13:40:32;77800.28;;;23.59
73673;BMP280;61972;19.480;-99.240;2024-02-23T13:42:58;77798.44;;;23.62
73673;BMP280;61972;19.480;-99.240;2024-02-23T13:45:27;77811.28;;;23.67
73673;BMP280;61972;19.480;-99.240;2024-02-23T13:48:01;77815.41;;;23.73